createdAt,value
2023-03-29T00:00:21.853Z,99233.06
2023-03-29T00:01:35.810Z,99217.88
2023-03-29T00:02:38.221Z,99234.66
2023-03-29T00:03:40.481Z,99235.47
2023-03-29T00:04:42.739Z,99229.44
2023-03-29T00:05:44.922Z,99219.63
2023-03-29T00:06:48.211Z,99197.06
2023-03-29T00:07:54.371Z,99223.41
2023-03-29T00:08:56.333Z,99229.91
2023-03-29T00:09:58.118Z,99216.06
2023-03-29T00:11:02.207Z,99224.56
2023-03-29T00:12:04.277Z,99215.56
2023-03-29T00:13:06.263Z,99218.81
2023-03-29T00:14:08.350Z,99208.47
2023-03-29T00:15:10.359Z,99226.63
2023-03-29T00:16:13.136Z,99226.50
2023-03-29T00:17:14.874Z,99221.56
2023-03-29T00:18:16.599Z,99231.34
2023-03-29T00:19:18.791Z,99233.34
2023-03-29T00:20:20.844Z,99229.91
2023-03-29T00:21:22.612Z,99233.66
2023-03-29T00:22:25.011Z,99234.75
2023-03-29T00:23:26.826Z,99225.38
2023-03-29T00:24:28.524Z,99231.00
2023-03-29T00:25:30.479Z,99231.81
2023-03-29T00:26:32.232Z,99233.44
2023-03-29T00:27:34.291Z,99245.81
2023-03-29T00:28:36.185Z,99229.34
2023-03-29T00:29:37.947Z,99235.00
2023-03-29T00:30:39.651Z,99235.31
2023-03-29T00:31:41.500Z,99238.00
2023-03-29T00:32:43.685Z,99237.84
2023-03-29T00:33:45.945Z,99242.53
2023-03-29T00:34:50.949Z,99244.47
2023-03-29T00:35:53.486Z,99248.88
2023-03-29T00:36:57.973Z,99245.81
2023-03-29T00:37:59.762Z,99247.47
2023-03-29T00:39:01.479Z,99245.28
2023-03-29T00:40:08.614Z,99251.63
2023-03-29T00:41:10.705Z,99251.47
2023-03-29T00:42:17.349Z,99254.53
2023-03-29T00:43:19.168Z,99249.78
2023-03-29T00:44:54.681Z,99253.56
2023-03-29T00:45:56.498Z,99250.00
2023-03-29T00:46:58.264Z,99249.16
2023-03-29T00:48:04.706Z,99246.41
2023-03-29T00:49:12.910Z,99249.69
2023-03-29T00:50:29.871Z,99245.38
2023-03-29T00:51:35.841Z,99244.56
2023-03-29T00:52:39.727Z,99255.50
2023-03-29T00:54:02.478Z,99247.03
2023-03-29T00:55:10.722Z,99254.72
2023-03-29T00:56:18.217Z,99256.09
2023-03-29T00:57:22.752Z,99255.16
2023-03-29T00:58:49.538Z,99257.06
2023-03-29T00:59:52.949Z,99263.78
2023-03-29T01:01:02.436Z,99263.78
2023-03-29T01:02:07.334Z,99257.47
2023-03-29T01:03:25.136Z,99252.53
2023-03-29T01:04:47.703Z,99265.59
2023-03-29T01:05:53.703Z,99250.22
2023-03-29T01:07:21.517Z,99261.31
2023-03-29T01:08:29.760Z,99262.28
2023-03-29T01:09:35.624Z,99262.28
2023-03-29T01:10:43.461Z,99263.13
2023-03-29T01:11:53.475Z,99270.25
2023-03-29T01:13:01.623Z,99269.00
2023-03-29T01:14:05.656Z,99268.34
2023-03-29T01:15:17.608Z,99273.69
2023-03-29T01:16:22.156Z,99274.38
2023-03-29T01:17:25.623Z,99269.97
2023-03-29T01:18:27.466Z,99274.91
2023-03-29T01:19:34.592Z,99262.97
2023-03-29T01:21:06.680Z,99275.41
2023-03-29T01:22:30.261Z,99281.59
2023-03-29T01:24:07.234Z,99272.78
2023-03-29T01:25:41.441Z,99280.25
2023-03-29T01:26:49.241Z,99258.66
2023-03-29T01:27:56.138Z,99269.53
2023-03-29T01:29:03.512Z,99262.00
2023-03-29T01:30:13.110Z,99274.06
2023-03-29T01:31:24.541Z,99260.50
2023-03-29T01:32:39.039Z,99276.97
2023-03-29T01:33:44.672Z,99272.06
2023-03-29T01:34:56.907Z,99275.13
2023-03-29T01:36:11.817Z,99276.53
2023-03-29T01:37:26.649Z,99283.81
2023-03-29T01:38:35.024Z,99282.03
2023-03-29T01:39:36.860Z,99283.69
2023-03-29T01:40:38.594Z,99281.59
2023-03-29T01:41:43.311Z,99286.97
2023-03-29T01:43:03.450Z,99279.13
2023-03-29T01:44:11.694Z,99282.56
2023-03-29T01:45:22.340Z,99276.53
2023-03-29T01:46:32.997Z,99277.88
2023-03-29T01:47:40.961Z,99283.16
2023-03-29T01:48:54.897Z,99285.31
2023-03-29T01:50:38.083Z,99282.84
2023-03-29T01:51:48.708Z,99283.38
2023-03-29T01:53:08.085Z,99273.78
2023-03-29T01:54:16.388Z,99265.34
2023-03-29T01:55:27.400Z,99263.09
2023-03-29T01:56:34.222Z,99286.75
2023-03-29T01:57:38.955Z,99273.03
2023-03-29T01:58:45.238Z,99274.81
2023-03-29T01:59:48.984Z,99276.47
2023-03-29T02:00:55.365Z,99282.31
2023-03-29T02:02:00.814Z,99271.13
2023-03-29T02:03:08.903Z,99281.97
2023-03-29T02:04:13.821Z,99253.34
2023-03-29T02:05:17.104Z,99268.69
2023-03-29T02:06:21.419Z,99257.75
2023-03-29T02:07:27.035Z,99275.78
2023-03-29T02:08:29.955Z,99284.56
2023-03-29T02:09:34.116Z,99258.03
2023-03-29T02:10:37.027Z,99275.94
2023-03-29T02:11:41.424Z,99285.25
2023-03-29T02:12:43.523Z,99287.31
2023-03-29T02:13:45.382Z,99265.78
2023-03-29T02:14:47.177Z,99285.75
2023-03-29T02:15:49.242Z,99287.69
2023-03-29T02:16:51.451Z,99292.31
2023-03-29T02:17:53.573Z,99290.13
2023-03-29T02:18:57.073Z,99304.69
2023-03-29T02:20:14.005Z,99302.06
2023-03-29T02:21:39.458Z,99305.63
2023-03-29T02:22:47.956Z,99308.38
2023-03-29T02:23:51.000Z,99324.31
2023-03-29T02:24:59.299Z,99311.97
2023-03-29T02:26:04.005Z,99292.94
2023-03-29T02:27:06.225Z,99321.41
2023-03-29T02:28:08.001Z,99319.78
2023-03-29T02:29:10.450Z,99321.34
2023-03-29T02:30:14.645Z,99326.78
2023-03-29T02:31:19.203Z,99313.53
2023-03-29T02:32:25.255Z,99313.25
2023-03-29T02:33:33.569Z,99316.78
2023-03-29T02:34:42.188Z,99321.16
2023-03-29T02:35:59.245Z,99334.88
2023-03-29T02:37:06.891Z,99319.59
2023-03-29T02:38:11.493Z,99338.31
2023-03-29T02:39:15.579Z,99336.53
2023-03-29T02:40:18.257Z,99327.66
2023-03-29T02:41:22.106Z,99331.91
2023-03-29T02:42:25.678Z,99345.31
2023-03-29T02:43:29.667Z,99340.91
2023-03-29T02:44:35.082Z,99344.78
2023-03-29T02:45:39.401Z,99346.59
2023-03-29T02:46:43.152Z,99335.75
2023-03-29T02:47:51.727Z,99340.38
2023-03-29T02:48:55.824Z,99333.56
2023-03-29T02:49:58.849Z,99334.41
2023-03-29T02:51:04.044Z,99342.75
2023-03-29T02:52:11.095Z,99338.50
2023-03-29T02:53:20.098Z,99318.53
2023-03-29T02:54:25.966Z,99347.44
2023-03-29T02:55:34.858Z,99329.50
2023-03-29T02:56:43.503Z,99344.25
2023-03-29T02:57:45.650Z,99334.66
2023-03-29T02:58:47.395Z,99345.91
2023-03-29T02:59:49.636Z,99337.53
2023-03-29T03:00:51.433Z,99344.41
2023-03-29T03:01:53.695Z,99327.84
2023-03-29T03:02:55.668Z,99348.88
2023-03-29T03:03:57.879Z,99351.53
2023-03-29T03:04:59.698Z,99345.38
2023-03-29T03:06:01.855Z,99339.59
2023-03-29T03:07:06.799Z,99355.50
2023-03-29T03:08:08.761Z,99338.56
2023-03-29T03:09:10.904Z,99345.97
2023-03-29T03:10:12.763Z,99351.97
2023-03-29T03:11:15.380Z,99312.31
2023-03-29T03:12:17.152Z,99356.06
2023-03-29T03:13:19.021Z,99344.59
2023-03-29T03:14:22.980Z,99364.03
2023-03-29T03:15:26.473Z,99356.66
2023-03-29T03:16:28.219Z,99363.06
2023-03-29T03:17:30.373Z,99370.38
2023-03-29T03:18:32.751Z,99360.50
2023-03-29T03:19:34.476Z,99362.38
2023-03-29T03:20:36.654Z,99369.53
2023-03-29T03:21:38.472Z,99376.91
2023-03-29T03:22:42.795Z,99367.44
2023-03-29T03:23:48.669Z,99369.25
2023-03-29T03:24:50.625Z,99379.53
2023-03-29T03:25:52.995Z,99369.16
2023-03-29T03:26:54.741Z,99375.03
2023-03-29T03:27:56.523Z,99365.56
2023-03-29T03:28:58.390Z,99371.47
2023-03-29T03:30:00.205Z,99358.03
2023-03-29T03:31:02.095Z,99378.06
2023-03-29T03:32:04.421Z,99376.00
2023-03-29T03:33:06.461Z,99373.66
2023-03-29T03:34:11.449Z,99360.91
2023-03-29T03:35:13.333Z,99380.94
2023-03-29T03:36:15.096Z,99374.75
2023-03-29T03:37:16.847Z,99373.13
2023-03-29T03:38:18.546Z,99376.69
2023-03-29T03:39:20.297Z,99371.47
2023-03-29T03:40:22.182Z,99380.63
2023-03-29T03:41:23.934Z,99334.25
2023-03-29T03:42:28.841Z,99377.09
2023-03-29T03:43:30.690Z,99374.53
2023-03-29T03:44:32.436Z,99379.56
2023-03-29T03:45:34.390Z,99380.81
2023-03-29T03:46:36.154Z,99391.38
2023-03-29T03:47:38.260Z,99373.44
2023-03-29T03:48:40.060Z,99375.91
2023-03-29T03:49:42.284Z,99386.00
2023-03-29T03:50:58.472Z,99380.94
2023-03-29T03:52:00.200Z,99387.69
2023-03-29T03:53:01.908Z,99387.28
2023-03-29T03:54:03.683Z,99386.19
2023-03-29T03:55:05.728Z,99391.00
2023-03-29T03:56:10.609Z,99379.75
2023-03-29T03:57:12.686Z,99385.50
2023-03-29T03:58:14.428Z,99377.28
2023-03-29T03:59:16.284Z,99375.63
2023-03-29T04:00:21.408Z,99397.84
2023-03-29T04:01:24.116Z,99383.22
2023-03-29T04:02:26.803Z,99388.78
2023-03-29T04:03:29.308Z,99393.72
2023-03-29T04:04:31.523Z,99397.56
2023-03-29T04:05:34.012Z,99401.81
2023-03-29T04:06:35.826Z,99393.47
2023-03-29T04:07:37.692Z,99405.53
2023-03-29T04:08:39.619Z,99403.88
2023-03-29T04:09:41.312Z,99408.31
2023-03-29T04:10:43.117Z,99400.47
2023-03-29T04:11:44.810Z,99399.66
2023-03-29T04:12:46.642Z,99403.34
2023-03-29T04:13:48.449Z,99397.47
2023-03-29T04:14:50.146Z,99408.81
2023-03-29T04:15:54.421Z,99394.88
2023-03-29T04:16:56.242Z,99408.81
2023-03-29T04:17:59.047Z,99411.41
2023-03-29T04:19:01.447Z,99417.22
2023-03-29T04:20:10.357Z,99416.13
2023-03-29T04:21:12.099Z,99413.66
2023-03-29T04:22:13.836Z,99409.25
2023-03-29T04:23:16.546Z,99407.63
2023-03-29T04:24:18.354Z,99416.75
2023-03-29T04:25:21.660Z,99417.31
2023-03-29T04:26:23.418Z,99421.28
2023-03-29T04:27:25.138Z,99412.94
2023-03-29T04:28:26.962Z,99405.53
2023-03-29T04:29:28.912Z,99408.00
2023-03-29T04:30:30.813Z,99431.28
2023-03-29T04:31:32.685Z,99415.38
2023-03-29T04:32:35.273Z,99426.28
2023-03-29T04:33:36.978Z,99415.31
2023-03-29T04:34:38.711Z,99418.03
2023-03-29T04:35:40.552Z,99420.72
2023-03-29T04:36:43.748Z,99421.53
2023-03-29T04:37:45.510Z,99415.44
2023-03-29T04:38:48.085Z,99417.75
2023-03-29T04:39:50.405Z,99423.59
2023-03-29T04:40:52.334Z,99430.00
2023-03-29T04:41:54.059Z,99434.78
2023-03-29T04:42:55.905Z,99426.69
2023-03-29T04:43:57.659Z,99431.97
2023-03-29T04:45:00.594Z,99436.16
2023-03-29T04:46:03.564Z,99426.59
2023-03-29T04:47:05.322Z,99427.53
2023-03-29T04:48:07.295Z,99424.84
2023-03-29T04:49:09.040Z,99431.91
2023-03-29T04:50:11.736Z,99428.09
2023-03-29T04:51:13.616Z,99441.25
2023-03-29T04:52:15.429Z,99438.69
2023-03-29T04:53:17.238Z,99431.53
2023-03-29T04:54:19.077Z,99424.94
2023-03-29T04:55:20.929Z,99432.25
2023-03-29T04:56:23.286Z,99430.59
2023-03-29T04:57:25.542Z,99433.97
2023-03-29T04:58:32.015Z,99439.53
2023-03-29T04:59:34.680Z,99437.16
2023-03-29T05:00:37.009Z,99433.09
2023-03-29T05:01:39.693Z,99428.50
2023-03-29T05:02:45.448Z,99442.56
2023-03-29T05:03:47.256Z,99444.41
2023-03-29T05:04:49.277Z,99439.66
2023-03-29T05:05:51.249Z,99442.16
2023-03-29T05:06:53.037Z,99442.38
2023-03-29T05:07:55.469Z,99444.19
2023-03-29T05:08:57.287Z,99437.84
2023-03-29T05:09:59.663Z,99441.53
2023-03-29T05:11:02.141Z,99439.09
2023-03-29T05:12:04.264Z,99455.63
2023-03-29T05:13:06.794Z,99437.47
2023-03-29T05:14:09.452Z,99452.03
2023-03-29T05:15:11.466Z,99436.03
2023-03-29T05:16:13.243Z,99446.72
2023-03-29T05:17:14.978Z,99447.25
2023-03-29T05:18:16.652Z,99446.47
2023-03-29T05:19:21.823Z,99443.97
2023-03-29T05:20:25.014Z,99437.91
2023-03-29T05:21:28.427Z,99436.94
2023-03-29T05:22:30.135Z,99445.66
2023-03-29T05:23:31.884Z,99449.13
2023-03-29T05:24:33.602Z,99436.34
2023-03-29T05:25:35.456Z,99450.00
2023-03-29T05:26:40.146Z,99450.97
2023-03-29T05:27:42.741Z,99438.53
2023-03-29T05:28:44.599Z,99456.22
2023-03-29T05:29:46.675Z,99444.44
2023-03-29T05:31:00.063Z,99459.34
2023-03-29T05:32:02.213Z,99448.03
2023-03-29T05:33:05.804Z,99454.94
2023-03-29T05:34:07.627Z,99449.84
2023-03-29T05:35:10.845Z,99451.66
2023-03-29T05:36:14.777Z,99443.63
2023-03-29T05:37:17.280Z,99449.31
2023-03-29T05:38:19.006Z,99465.72
2023-03-29T05:39:21.220Z,99462.44
2023-03-29T05:40:26.305Z,99470.16
2023-03-29T05:41:28.338Z,99449.66
2023-03-29T05:42:30.045Z,99457.53
2023-03-29T05:43:32.088Z,99462.94
2023-03-29T05:44:33.850Z,99461.91
2023-03-29T05:45:35.556Z,99451.22
2023-03-29T05:46:37.380Z,99464.34
2023-03-29T05:47:39.213Z,99462.53
2023-03-29T05:48:41.711Z,99483.16
2023-03-29T05:49:44.767Z,99466.63
2023-03-29T05:50:48.627Z,99475.94
2023-03-29T05:51:52.109Z,99460.34
2023-03-29T05:52:53.808Z,99457.88
2023-03-29T05:53:55.495Z,99466.88
2023-03-29T05:54:57.492Z,99489.53
2023-03-29T05:55:59.302Z,99468.25
2023-03-29T05:57:01.338Z,99471.38
2023-03-29T05:58:03.940Z,99458.94
2023-03-29T05:59:05.683Z,99452.88
2023-03-29T06:00:26.870Z,99460.88
2023-03-29T06:01:28.887Z,99465.66
2023-03-29T06:02:30.751Z,99465.47
2023-03-29T06:03:32.692Z,99455.72
2023-03-29T06:04:36.003Z,99453.78
2023-03-29T06:05:37.794Z,99458.00
2023-03-29T06:06:40.730Z,99464.69
2023-03-29T06:07:43.723Z,99465.16
2023-03-29T06:08:46.244Z,99451.03
2023-03-29T06:09:47.990Z,99462.31
2023-03-29T06:10:49.935Z,99456.81
2023-03-29T06:11:52.344Z,99454.03
2023-03-29T06:12:54.071Z,99463.03
2023-03-29T06:13:55.917Z,99454.31
2023-03-29T06:15:03.165Z,99453.88
2023-03-29T06:16:06.126Z,99460.47
2023-03-29T06:17:07.866Z,99463.97
2023-03-29T06:18:09.978Z,99464.31
2023-03-29T06:19:11.849Z,99454.16
2023-03-29T06:20:14.428Z,99470.97
2023-03-29T06:21:16.952Z,99460.56
2023-03-29T06:22:18.717Z,99463.72
2023-03-29T06:23:21.451Z,99485.50
2023-03-29T06:24:25.089Z,99471.78
2023-03-29T06:25:26.970Z,99460.03
2023-03-29T06:26:28.658Z,99473.13
2023-03-29T06:27:30.369Z,99459.38
2023-03-29T06:28:32.225Z,99475.41
2023-03-29T06:29:33.961Z,99464.91
2023-03-29T06:30:35.703Z,99478.44
2023-03-29T06:31:37.620Z,99480.41
2023-03-29T06:32:39.890Z,99475.38
2023-03-29T06:33:43.284Z,99490.75
2023-03-29T06:34:44.988Z,99484.38
2023-03-29T06:35:48.331Z,99481.38
2023-03-29T06:36:51.189Z,99479.91
2023-03-29T06:37:53.850Z,99488.59
2023-03-29T06:38:55.567Z,99486.41
2023-03-29T06:39:58.123Z,99489.56
2023-03-29T06:41:08.000Z,99492.59
2023-03-29T06:42:20.056Z,99486.75
2023-03-29T06:43:22.854Z,99501.09
2023-03-29T06:44:25.680Z,99500.91
2023-03-29T06:45:29.484Z,99493.03
2023-03-29T06:46:31.819Z,99494.50
2023-03-29T06:47:33.673Z,99493.13
2023-03-29T06:48:35.485Z,99502.13
2023-03-29T06:49:37.176Z,99500.84
2023-03-29T06:50:38.946Z,99511.38
2023-03-29T06:51:40.738Z,99506.09
2023-03-29T06:52:42.436Z,99507.03
2023-03-29T06:53:44.130Z,99502.56
2023-03-29T06:54:46.594Z,99522.84
2023-03-29T06:55:49.593Z,99508.38
2023-03-29T06:56:51.622Z,99496.56
2023-03-29T06:57:54.420Z,99504.75
2023-03-29T06:58:56.887Z,99510.94
2023-03-29T06:59:58.560Z,99504.25
2023-03-29T07:01:02.666Z,99513.91
2023-03-29T07:02:04.617Z,99508.66
2023-03-29T07:03:09.933Z,99513.63
2023-03-29T07:04:11.886Z,99508.06
2023-03-29T07:05:14.766Z,99511.88
2023-03-29T07:06:18.076Z,99512.53
2023-03-29T07:07:20.680Z,99514.47
2023-03-29T07:08:22.617Z,99513.34
2023-03-29T07:09:26.272Z,99500.09
2023-03-29T07:10:32.939Z,99498.78
2023-03-29T07:11:35.996Z,99515.16
2023-03-29T07:12:38.361Z,99502.25
2023-03-29T07:13:43.709Z,99519.50
2023-03-29T07:14:46.743Z,99512.75
2023-03-29T07:15:48.570Z,99520.19
2023-03-29T07:16:52.091Z,99515.16
2023-03-29T07:17:54.507Z,99515.66
2023-03-29T07:18:56.730Z,99491.81
2023-03-29T07:19:58.491Z,99526.25
2023-03-29T07:21:00.701Z,99525.28
2023-03-29T07:22:02.770Z,99525.22
2023-03-29T07:23:05.483Z,99509.97
2023-03-29T07:24:07.388Z,99519.81
2023-03-29T07:25:10.785Z,99519.50
2023-03-29T07:26:12.669Z,99512.19
2023-03-29T07:27:14.801Z,99523.63
2023-03-29T07:28:16.768Z,99521.09
2023-03-29T07:29:18.606Z,99525.75
2023-03-29T07:30:23.733Z,99507.47
2023-03-29T07:31:25.523Z,99512.41
2023-03-29T07:32:28.296Z,99513.97
2023-03-29T07:33:30.653Z,99509.63
2023-03-29T07:34:32.844Z,99515.53
2023-03-29T07:35:34.610Z,99519.69
2023-03-29T07:36:38.644Z,99528.72
2023-03-29T07:37:42.859Z,99496.00
2023-03-29T07:38:44.854Z,99510.28
2023-03-29T07:39:47.821Z,99497.03
2023-03-29T07:40:49.569Z,99507.91
2023-03-29T07:41:51.692Z,99509.41
2023-03-29T07:42:55.362Z,99502.63
2023-03-29T07:43:57.164Z,99508.88
2023-03-29T07:44:58.884Z,99514.16
2023-03-29T07:46:05.379Z,99516.91
2023-03-29T07:47:07.187Z,99493.59
2023-03-29T07:48:09.153Z,99509.91
2023-03-29T07:49:10.969Z,99504.41
2023-03-29T07:50:13.615Z,99500.41
2023-03-29T07:51:16.643Z,99497.88
2023-03-29T07:52:18.355Z,99498.81
2023-03-29T07:53:20.094Z,99498.78
2023-03-29T07:54:21.877Z,99500.47
2023-03-29T07:55:24.772Z,99503.22
2023-03-29T07:56:26.640Z,99498.88
2023-03-29T07:57:28.380Z,99498.44
2023-03-29T07:58:30.415Z,99505.47
2023-03-29T07:59:32.219Z,99505.13
2023-03-29T08:00:34.274Z,99487.13
2023-03-29T08:01:36.016Z,99500.72
2023-03-29T08:02:38.158Z,99483.94
2023-03-29T08:03:39.909Z,99493.69
2023-03-29T08:04:42.201Z,99495.31
2023-03-29T08:05:44.038Z,99492.50
2023-03-29T08:06:45.851Z,99502.44
2023-03-29T08:07:48.039Z,99510.28
2023-03-29T08:08:49.884Z,99496.34
2023-03-29T08:09:51.611Z,99502.56
2023-03-29T08:10:53.781Z,99503.16
2023-03-29T08:11:55.515Z,99493.59
2023-03-29T08:12:58.284Z,99522.22
2023-03-29T08:14:00.173Z,99493.91
2023-03-29T08:15:02.307Z,99513.94
2023-03-29T08:16:05.895Z,99484.25
2023-03-29T08:17:07.693Z,99504.38
2023-03-29T08:18:09.581Z,99492.31
2023-03-29T08:19:11.377Z,99503.25
2023-03-29T08:20:16.241Z,99505.38
2023-03-29T08:21:17.980Z,99506.84
2023-03-29T08:22:19.907Z,99508.28
2023-03-29T08:23:21.625Z,99512.53
2023-03-29T08:24:23.344Z,99505.81
2023-03-29T08:25:25.172Z,99494.16
2023-03-29T08:26:26.984Z,99500.31
2023-03-29T08:27:29.166Z,99462.75
2023-03-29T08:28:30.915Z,99506.78
2023-03-29T08:29:32.625Z,99504.75
2023-03-29T08:30:34.602Z,99517.19
2023-03-29T08:31:36.849Z,99505.81
2023-03-29T08:32:39.421Z,99499.97
2023-03-29T08:33:44.193Z,99502.69
2023-03-29T08:34:46.993Z,99504.53
2023-03-29T08:35:49.479Z,99511.31
2023-03-29T08:36:52.716Z,99513.13
2023-03-29T08:37:54.682Z,99499.38
2023-03-29T08:38:56.444Z,99478.47
2023-03-29T08:39:58.699Z,99500.63
2023-03-29T08:41:00.713Z,99508.81
2023-03-29T08:42:09.017Z,99506.28
2023-03-29T08:43:31.742Z,99508.25
2023-03-29T08:45:15.035Z,99498.25
2023-03-29T08:46:35.306Z,99516.81
2023-03-29T08:47:50.565Z,99497.91
2023-03-29T08:49:03.889Z,99502.25
2023-03-29T08:50:06.855Z,99495.19
2023-03-29T08:51:24.654Z,99506.75
2023-03-29T08:52:39.290Z,99503.94
2023-03-29T08:53:49.121Z,99494.59
2023-03-29T08:54:56.116Z,99497.44
2023-03-29T08:56:00.477Z,99493.19
2023-03-29T08:57:12.355Z,99497.00
2023-03-29T08:58:29.120Z,99493.75
2023-03-29T08:59:33.306Z,99487.84
2023-03-29T09:00:57.507Z,99506.41
2023-03-29T09:02:02.625Z,99501.31
2023-03-29T09:03:13.666Z,99492.16
2023-03-29T09:04:42.676Z,99508.06
2023-03-29T09:05:51.524Z,99478.88
2023-03-29T09:06:54.401Z,99487.03
2023-03-29T09:07:56.237Z,99486.84
2023-03-29T09:08:58.237Z,99490.72
2023-03-29T09:10:00.587Z,99493.34
2023-03-29T09:11:12.646Z,99494.56
2023-03-29T09:12:14.312Z,99502.72
2023-03-29T09:13:19.672Z,99506.34
2023-03-29T09:14:27.605Z,99505.09
2023-03-29T09:15:54.230Z,99510.19
2023-03-29T09:17:03.960Z,99494.13
2023-03-29T09:18:30.485Z,99479.03
2023-03-29T09:19:42.078Z,99499.59
2023-03-29T09:21:16.705Z,99503.91
2023-03-29T09:22:41.608Z,99502.28
2023-03-29T09:24:25.317Z,99498.16
2023-03-29T09:25:50.883Z,99499.69
2023-03-29T09:27:05.375Z,99489.72
2023-03-29T09:29:02.908Z,99501.28
2023-03-29T09:30:28.703Z,99499.53
2023-03-29T09:31:39.341Z,99496.72
2023-03-29T09:32:54.512Z,99504.03
2023-03-29T09:34:07.205Z,99500.63
2023-03-29T09:35:27.739Z,99497.22
2023-03-29T09:36:36.416Z,99500.47
2023-03-29T09:37:40.005Z,99500.63
2023-03-29T09:38:44.528Z,99497.28
2023-03-29T09:39:46.332Z,99501.25
2023-03-29T09:40:53.963Z,99490.91
2023-03-29T09:42:05.886Z,99480.31
2023-03-29T09:43:14.320Z,99492.06
2023-03-29T09:44:30.956Z,99491.03
2023-03-29T09:45:38.584Z,99499.53
2023-03-29T09:47:08.072Z,99495.25
2023-03-29T09:48:15.413Z,99485.66
2023-03-29T09:49:34.200Z,99486.13
2023-03-29T09:50:42.426Z,99485.53
2023-03-29T09:51:48.146Z,99481.75
2023-03-29T09:52:50.717Z,99487.66
2023-03-29T09:53:52.811Z,99482.81
2023-03-29T09:54:54.673Z,99490.03
2023-03-29T09:55:57.005Z,99488.75
2023-03-29T09:56:59.764Z,99481.72
2023-03-29T09:58:03.287Z,99477.88
2023-03-29T09:59:05.754Z,99475.13
2023-03-29T10:00:10.802Z,99475.69
2023-03-29T10:01:17.576Z,99483.09
2023-03-29T10:02:21.301Z,99482.41
2023-03-29T10:03:26.049Z,99490.78
2023-03-29T10:04:27.946Z,99483.16
2023-03-29T10:05:33.204Z,99470.66
2023-03-29T10:06:35.669Z,99480.72
2023-03-29T10:07:44.775Z,99465.22
2023-03-29T10:08:51.883Z,99460.97
2023-03-29T10:09:56.121Z,99464.34
2023-03-29T10:10:59.939Z,99466.78
2023-03-29T10:12:06.836Z,99461.44
2023-03-29T10:13:16.730Z,99448.75
2023-03-29T10:14:22.518Z,99450.75
2023-03-29T10:15:30.344Z,99457.06
2023-03-29T10:16:46.361Z,99459.31
2023-03-29T10:17:48.742Z,99442.53
2023-03-29T10:18:50.768Z,99444.50
2023-03-29T10:19:58.233Z,99458.31
2023-03-29T10:21:02.901Z,99462.75
2023-03-29T10:22:08.079Z,99454.13
2023-03-29T10:23:18.992Z,99442.28
2023-03-29T10:24:25.986Z,99431.09
2023-03-29T10:25:35.862Z,99430.66
2023-03-29T10:26:39.157Z,99440.75
2023-03-29T10:27:43.306Z,99423.06
2023-03-29T10:28:45.307Z,99431.25
2023-03-29T10:29:47.244Z,99430.34
2023-03-29T10:30:57.607Z,99420.28
2023-03-29T10:31:59.423Z,99434.78
2023-03-29T10:33:01.749Z,99432.84
2023-03-29T10:34:06.685Z,99424.53
2023-03-29T10:35:33.469Z,99430.56
2023-03-29T10:36:40.304Z,99436.06
2023-03-29T10:37:43.796Z,99435.47
2023-03-29T10:38:46.337Z,99430.66
2023-03-29T10:39:49.170Z,99420.47
2023-03-29T10:40:53.734Z,99430.34
2023-03-29T10:41:56.285Z,99419.34
2023-03-29T10:43:32.625Z,99397.13
2023-03-29T10:44:37.822Z,99407.81
2023-03-29T10:45:41.108Z,99418.66
2023-03-29T10:46:44.216Z,99410.56
2023-03-29T10:47:48.682Z,99421.66
2023-03-29T10:48:55.677Z,99407.47
2023-03-29T10:50:01.652Z,99403.00
2023-03-29T10:51:06.118Z,99397.19
2023-03-29T10:52:09.528Z,99393.84
2023-03-29T10:53:29.408Z,99392.31
2023-03-29T10:54:31.479Z,99396.50
2023-03-29T10:55:41.923Z,99398.16
2023-03-29T10:56:47.847Z,99398.59
2023-03-29T10:58:15.718Z,99407.91
2023-03-29T10:59:17.373Z,99392.69
2023-03-29T11:00:34.203Z,99401.13
2023-03-29T11:02:00.127Z,99397.41
2023-03-29T11:03:11.618Z,99393.56
2023-03-29T11:04:48.710Z,99378.97
2023-03-29T11:05:59.260Z,99375.28
2023-03-29T11:07:31.590Z,99380.06
2023-03-29T11:08:51.144Z,99364.81
2023-03-29T11:10:13.906Z,99346.59
2023-03-29T11:11:41.254Z,99356.03
2023-03-29T11:13:12.305Z,99348.81
2023-03-29T11:14:22.808Z,99357.56
2023-03-29T11:15:38.936Z,99353.69
2023-03-29T11:16:47.007Z,99355.63
2023-03-29T11:18:00.743Z,99349.41
2023-03-29T11:19:16.264Z,99362.34
2023-03-29T11:20:41.064Z,99344.41
2023-03-29T11:22:05.149Z,99339.91
2023-03-29T11:23:22.383Z,99335.72
2023-03-29T11:24:53.069Z,99336.19
2023-03-29T11:26:00.836Z,99328.91
2023-03-29T11:27:27.490Z,99344.16
2023-03-29T11:28:39.046Z,99335.97
2023-03-29T11:30:00.942Z,99338.38
2023-03-29T11:31:11.876Z,99336.59
2023-03-29T11:32:16.072Z,99335.63
2023-03-29T11:33:34.056Z,99337.31
2023-03-29T11:35:06.559Z,99326.25
2023-03-29T11:36:42.353Z,99334.34
2023-03-29T11:37:55.817Z,99327.34
2023-03-29T11:39:16.555Z,99314.22
2023-03-29T11:40:55.842Z,99319.63
2023-03-29T11:42:08.284Z,99324.66
2023-03-29T11:43:15.676Z,99327.66
2023-03-29T11:44:33.700Z,99326.06
2023-03-29T11:45:46.328Z,99321.91
2023-03-29T11:46:58.747Z,99330.56
2023-03-29T11:48:05.165Z,99325.47
2023-03-29T11:49:42.512Z,99321.91
2023-03-29T11:51:06.886Z,99312.19
2023-03-29T11:52:25.697Z,99321.31
2023-03-29T11:53:57.127Z,99307.69
2023-03-29T11:55:04.689Z,99301.75
2023-03-29T11:56:15.780Z,99306.44
2023-03-29T11:57:29.288Z,99300.41
2023-03-29T11:58:39.566Z,99304.31
2023-03-29T11:59:56.897Z,99316.75
2023-03-29T12:01:13.016Z,99315.47
2023-03-29T12:02:35.664Z,99312.47
2023-03-29T12:03:47.188Z,99318.78
2023-03-29T12:04:54.053Z,99304.72
2023-03-29T12:06:04.564Z,99297.22
2023-03-29T12:07:28.113Z,99293.69
2023-03-29T12:08:32.565Z,99291.50
2023-03-29T12:09:36.977Z,99299.97
2023-03-29T12:11:02.469Z,99285.38
2023-03-29T12:12:45.491Z,99281.06
2023-03-29T12:14:14.287Z,99289.31
2023-03-29T12:15:26.424Z,99300.63
2023-03-29T12:17:01.156Z,99300.25
2023-03-29T12:18:14.229Z,99301.53
2023-03-29T12:19:40.305Z,99292.63
2023-03-29T12:20:48.638Z,99281.34
2023-03-29T12:21:52.632Z,99279.09
2023-03-29T12:22:55.131Z,99282.88
2023-03-29T12:23:57.976Z,99280.84
2023-03-29T12:25:01.664Z,99295.72
2023-03-29T12:26:12.365Z,99266.13
2023-03-29T12:27:23.404Z,99270.59
2023-03-29T12:29:11.810Z,99279.47
2023-03-29T12:30:21.853Z,99281.13
2023-03-29T12:31:26.780Z,99283.63
2023-03-29T12:32:37.871Z,99297.59
2023-03-29T12:33:51.726Z,99276.22
2023-03-29T12:35:25.118Z,99279.78
2023-03-29T12:37:02.262Z,99277.84
2023-03-29T12:38:25.204Z,99274.72
2023-03-29T12:39:29.068Z,99272.16
2023-03-29T12:40:41.994Z,99291.47
2023-03-29T12:41:49.030Z,99268.19
2023-03-29T12:43:02.462Z,99281.94
2023-03-29T12:44:04.872Z,99277.25
2023-03-29T12:45:15.118Z,99285.59
2023-03-29T12:46:31.946Z,99277.19
2023-03-29T12:47:43.315Z,99277.88
2023-03-29T12:48:49.414Z,99281.72
2023-03-29T12:49:59.703Z,99280.31
2023-03-29T12:51:03.643Z,99274.59
2023-03-29T12:52:28.749Z,99275.78
2023-03-29T12:53:50.670Z,99277.66
2023-03-29T12:54:58.077Z,99282.88
2023-03-29T12:56:02.905Z,99266.66
2023-03-29T12:57:41.898Z,99260.19
2023-03-29T12:59:16.475Z,99270.91
2023-03-29T13:00:26.758Z,99284.88
2023-03-29T13:01:34.595Z,99274.06
2023-03-29T13:02:37.720Z,99274.69
2023-03-29T13:03:39.502Z,99274.06
2023-03-29T13:04:43.987Z,99273.13
2023-03-29T13:05:46.158Z,99280.19